Time;durP1;ratioP1;P1;durP2;ratioP2;P2;SDS_P1;SDS_P2;PMS_P1;PMS_P2;Temp;Humidity;BMP_temperature;BMP_pressure;BME280_temperature;BME280_humidity;BME280_pressure;Samples;Min_cycle;Max_cycle;Signal;HPM_P1;HPM_P2
2023/07/29 00:02:14;;;;;;;3.05;1.98;;;;;;;18.06;77.23;92728.16;2041249;70;20211;-86
2023/07/29 00:04:40;;;;;;;4.57;1.70;;;;;;;18.14;77.61;92734.09;2041289;70;20142;-87
2023/07/29 00:07:06;;;;;;;2.85;1.63;;;;;;;18.09;77.68;92726.81;2041492;70;20171;-87
2023/07/29 00:09:37;;;;;;;4.88;1.77;;;;;;;18.10;78.02;92736.09;2041539;70;20640;-89
2023/07/29 00:12:03;;;;;;;4.47;1.58;;;;;;;18.14;77.76;92750.47;2041277;70;20147;-86
2023/07/29 00:14:32;;;;;;;4.28;1.70;;;;;;;18.17;77.19;92737.75;2041042;70;20191;-85
2023/07/29 00:16:58;;;;;;;3.58;1.70;;;;;;;18.08;77.85;92744.59;2038306;70;20147;-88
2023/07/29 00:19:23;;;;;;;5.25;1.85;;;;;;;18.15;77.21;92760.50;2041361;70;20169;-90
2023/07/29 00:21:50;;;;;;;3.35;1.75;;;;;;;18.20;77.59;92762.09;2038119;70;20139;-87
2023/07/29 00:24:16;;;;;;;4.45;1.60;;;;;;;18.22;77.50;92748.63;2041149;70;20151;-88
2023/07/29 00:26:42;;;;;;;2.20;1.75;;;;;;;18.12;78.07;92724.78;2041240;70;20269;-87
2023/07/29 00:29:07;;;;;;;5.38;1.88;;;;;;;17.94;78.43;92727.75;2041020;70;20235;-88
2023/07/29 00:31:33;;;;;;;4.22;1.75;;;;;;;18.13;77.86;92732.66;2041223;70;20237;-86
2023/07/29 00:33:58;;;;;;;4.75;1.80;;;;;;;18.14;77.48;92727.69;2040537;70;20685;-88
2023/07/29 00:36:26;;;;;;;2.72;1.77;;;;;;;18.04;78.21;92722.38;2043412;70;20174;-87
2023/07/29 00:38:52;;;;;;;4.28;1.77;;;;;;;18.06;77.97;92728.16;2041661;70;20155;-88
2023/07/29 00:41:19;;;;;;;2.70;1.77;;;;;;;17.97;78.87;92718.63;2040997;70;20594;-89
2023/07/29 00:43:45;;;;;;;6.47;1.75;;;;;;;17.94;77.90;92707.81;2040667;70;20146;-86
2023/07/29 00:46:12;;;;;;;4.18;1.88;;;;;;;17.91;77.88;92721.22;2041171;70;20278;-88
2023/07/29 00:48:38;;;;;;;4.40;2.10;;;;;;;17.58;79.86;92716.50;2040924;70;20533;-91
2023/07/29 00:51:06;;;;;;;4.65;1.90;;;;;;;17.90;78.50;92716.22;2037953;70;20143;-87
2023/07/29 00:53:32;;;;;;;6.10;2.20;;;;;;;17.74;79.52;92700.03;2037787;70;20163;-89
2023/07/29 00:55:57;;;;;;;5.40;1.77;;;;;;;17.84;77.33;92702.50;2041140;70;20621;-88
2023/07/29 00:58:24;;;;;;;5.85;2.70;;;;;;;17.85;78.25;92706.06;2041059;70;20166;-89
2023/07/29 01:00:51;;;;;;;4.28;2.13;;;;;;;17.93;77.97;92706.34;2037664;70;20155;-89
2023/07/29 01:03:17;;;;;;;3.80;1.70;;;;;;;17.88;78.42;92694.09;2037506;70;20243;-90
2023/07/29 01:06:07;;;;;;;4.10;1.90;;;;;;;17.98;78.33;92696.56;2037683;70;20165;-92
2023/07/29 01:09:04;;;;;;;3.80;2.00;;;;;;;17.73;78.63;92690.03;2041185;70;20155;-91
2023/07/29 01:11:35;;;;;;;2.50;1.80;;;;;;;17.81;78.67;92681.03;2041129;70;20135;-91
2023/07/29 01:14:06;;;;;;;4.60;2.03;;;;;;;17.87;78.45;92675.56;2047361;70;20617;-93
2023/07/29 01:16:52;;;;;;;3.83;1.80;;;;;;;17.85;78.59;92674.75;2045674;70;20152;-89
2023/07/29 01:19:49;;;;;;;6.05;2.10;;;;;;;17.77;79.02;92686.59;2047372;70;20163;-89
2023/07/29 01:22:16;;;;;;;2.95;2.00;;;;;;;17.73;78.81;92672.19;2041440;70;20170;-88
2023/07/29 01:24:45;;;;;;;6.43;2.03;;;;;;;17.66;79.12;92673.38;2044445;70;20170;-89
2023/07/29 01:27:12;;;;;;;5.95;2.00;;;;;;;17.69;78.33;92672.78;2041723;70;20143;-90
2023/07/29 01:29:37;;;;;;;4.10;2.10;;;;;;;17.61;79.15;92675.34;2041604;70;20143;-85
2023/07/29 01:32:36;;;;;;;3.50;1.92;;;;;;;17.77;78.04;92686.59;2041261;70;20585;-89
2023/07/29 01:35:07;;;;;;;2.53;1.70;;;;;;;17.69;78.58;92683.47;2044934;70;20623;-88
2023/07/29 01:37:35;;;;;;;2.72;1.90;;;;;;;17.72;78.11;92687.81;2041528;70;20627;-90
2023/07/29 01:40:12;;;;;;;4.15;1.90;;;;;;;17.77;77.93;92695.13;2044890;70;20214;-88
2023/07/29 01:42:38;;;;;;;3.47;1.77;;;;;;;17.77;78.30;92695.13;2045756;70;20637;-92
2023/07/29 01:45:04;;;;;;;5.30;1.73;;;;;;;17.76;78.11;92700.09;2047334;70;20151;-91
2023/07/29 01:47:32;;;;;;;3.55;1.80;;;;;;;17.70;78.94;92693.44;2041975;70;20178;-89
2023/07/29 01:49:57;;;;;;;4.13;2.08;;;;;;;17.74;78.32;92693.63;2045228;70;20182;-90
2023/07/29 01:52:23;;;;;;;5.28;1.95;;;;;;;17.69;78.16;92689.16;2044821;70;20174;-88
2023/07/29 01:54:49;;;;;;;3.22;1.98;;;;;;;17.66;78.68;92682.66;2041652;70;20159;-89
2023/07/29 01:57:14;;;;;;;4.32;2.17;;;;;;;17.74;78.15;92680.09;2041475;70;20593;-89
2023/07/29 01:59:40;;;;;;;5.57;1.90;;;;;;;17.77;77.16;92681.63;2041319;70;20163;-88
2023/07/29 02:02:06;;;;;;;3.83;2.17;;;;;;;17.74;78.45;92682.22;2044442;70;20234;-88
2023/07/29 02:04:32;;;;;;;3.05;2.00;;;;;;;17.64;78.93;92673.28;2041168;70;20140;-91
2023/07/29 02:06:58;;;;;;;7.53;1.90;;;;;;;17.58;79.20;92668.13;2044525;70;20156;-90
2023/07/29 02:09:25;;;;;;;3.60;2.08;;;;;;;17.55;77.87;92680.84;2045029;70;20266;-89
2023/07/29 02:11:51;;;;;;;6.47;2.20;;;;;;;17.53;78.69;92677.91;2041374;70;20139;-90
2023/07/29 02:14:17;;;;;;;8.00;2.10;;;;;;;17.66;79.08;92676.22;2038149;70;20253;-88
2023/07/29 02:16:42;;;;;;;5.07;2.15;;;;;;;17.66;78.20;92674.09;2038655;70;20143;-91
2023/07/29 02:19:08;;;;;;;7.30;2.10;;;;;;;17.71;77.91;92678.53;2038652;70;20230;-89
2023/07/29 02:21:33;;;;;;;4.57;2.00;;;;;;;17.61;79.25;92680.31;2038717;70;20150;-86
2023/07/29 02:23:59;;;;;;;6.30;1.95;;;;;;;17.70;78.25;92690.59;2038611;70;20171;-89
2023/07/29 02:26:26;;;;;;;6.63;2.22;;;;;;;17.71;77.88;92698.47;2038877;70;20159;-89
2023/07/29 02:28:52;;;;;;;6.18;2.63;;;;;;;17.67;78.63;92706.16;2039972;70;20155;-92
2023/07/29 02:31:22;;;;;;;4.15;2.28;;;;;;;17.62;78.77;92707.41;2036167;70;20633;-86
2023/07/29 02:33:49;;;;;;;5.82;2.30;;;;;;;17.56;79.08;92704.34;2042557;70;20207;-89
2023/07/29 02:36:15;;;;;;;6.55;2.20;;;;;;;17.57;79.17;92705.78;2038754;70;20178;-91
2023/07/29 02:38:41;;;;;;;4.28;2.28;;;;;;;17.63;79.15;92703.16;2036054;70;20144;-92
2023/07/29 02:41:15;;;;;;;3.90;2.40;;;;;;;17.59;78.69;92695.19;2038577;70;20207;-91
2023/07/29 02:43:48;;;;;;;3.75;2.28;;;;;;;17.68;78.16;92694.09;2036102;70;20150;-92
2023/07/29 02:46:15;;;;;;;4.20;2.17;;;;;;;17.66;78.25;92690.47;2038639;70;20238;-92
2023/07/29 02:48:42;;;;;;;4.13;2.40;;;;;;;17.63;78.22;92680.38;2038635;70;20620;-92
2023/07/29 02:51:08;;;;;;;4.95;2.10;;;;;;;17.58;78.89;92679.50;2038623;70;20167;-90
2023/07/29 02:53:39;;;;;;;7.22;2.20;;;;;;;17.60;79.33;92684.56;2042073;70;20162;-92
2023/07/29 02:56:09;;;;;;;2.88;1.90;;;;;;;17.45;79.85;92675.50;2042382;70;20123;-91
2023/07/29 02:58:36;;;;;;;7.10;1.80;;;;;;;17.54;79.01;92685.78;2042237;70;20155;-91
2023/07/29 03:01:03;;;;;;;6.18;2.10;;;;;;;17.55;78.41;92683.69;2039564;70;20155;-85
2023/07/29 03:03:30;;;;;;;8.43;2.10;;;;;;;17.59;78.41;92680.97;2038757;70;20178;-91
2023/07/29 03:06:04;;;;;;;5.18;3.10;;;;;;;17.51;78.50;92684.28;2039102;70;20742;-92
2023/07/29 03:08:30;;;;;;;8.25;3.30;;;;;;;17.25;80.71;92694.72;2038647;70;20139;-90
2023/07/29 03:10:56;;;;;;;4.18;2.38;;;;;;;17.41;80.63;92694.56;2041881;70;20158;-91
2023/07/29 03:13:22;;;;;;;5.65;2.40;;;;;;;17.46;80.16;92685.53;2038799;70;20152;-91
2023/07/29 03:15:48;;;;;;;3.83;2.10;;;;;;;17.44;80.16;92688.28;2038839;70;20520;-91
2023/07/29 03:18:14;;;;;;;3.63;2.10;;;;;;;17.44;80.74;92687.56;2038927;70;20226;-92
2023/07/29 03:20:40;;;;;;;4.88;2.33;;;;;;;17.46;79.95;92681.94;2038862;70;20170;-91
2023/07/29 03:23:06;;;;;;;5.30;2.30;;;;;;;17.48;79.87;92679.16;2042547;70;20544;-91
2023/07/29 03:25:32;;;;;;;6.65;2.45;;;;;;;17.46;80.15;92679.84;2038983;70;20225;-92
2023/07/29 03:27:57;;;;;;;10.52;2.17;;;;;;;17.37;80.36;92668.84;2042144;70;20153;-91
2023/07/29 03:30:23;;;;;;;9.00;2.17;;;;;;;17.39;80.42;92672.47;2040083;70;20147;-91
2023/07/29 03:32:50;;;;;;;5.32;2.20;;;;;;;17.43;80.02;92669.03;2039889;70;20171;-90
2023/07/29 03:35:16;;;;;;;4.93;2.10;;;;;;;17.35;80.59;92680.84;2042202;70;20178;-86
2023/07/29 03:37:42;;;;;;;4.50;2.30;;;;;;;17.30;80.38;92672.84;2041205;70;20147;-87
2023/07/29 03:40:09;;;;;;;5.10;1.90;;;;;;;17.33;80.50;92683.63;2044440;70;20494;-88
2023/07/29 03:42:35;;;;;;;4.57;2.40;;;;;;;17.28;80.26;92682.75;2044052;70;20210;-91
2023/07/29 03:45:01;;;;;;;5.68;2.40;;;;;;;17.43;79.48;92686.84;2042446;70;20151;-90
2023/07/29 03:47:27;;;;;;;5.47;3.17;;;;;;;17.26;80.10;92677.00;2036754;70;20163;-89
2023/07/29 03:49:54;;;;;;;6.03;2.70;;;;;;;17.34;80.08;92676.56;2042644;70;20194;-91
2023/07/29 03:52:21;;;;;;;3.50;2.67;;;;;;;17.30;80.34;92678.53;2040359;70;20146;-91
2023/07/29 03:54:48;;;;;;;5.22;2.65;;;;;;;17.32;79.62;92682.19;2038921;70;20143;-88
2023/07/29 03:57:14;;;;;;;6.28;2.63;;;;;;;17.23;80.37;92672.63;2042069;70;20166;-90
2023/07/29 03:59:40;;;;;;;6.63;2.20;;;;;;;17.19;80.94;92675.31;2038639;70;20189;-90
2023/07/29 04:02:06;;;;;;;4.63;2.55;;;;;;;17.26;79.32;92670.56;2038728;70;20155;-88
2023/07/29 04:04:31;;;;;;;3.22;2.15;;;;;;;17.22;80.20;92670.44;2038727;70;20151;-90
2023/07/29 04:06:57;;;;;;;3.80;2.70;;;;;;;17.20;80.46;92670.38;2038627;70;20155;-88
2023/07/29 04:09:23;;;;;;;7.82;2.60;;;;;;;17.15;81.06;92660.22;2036001;70;20153;-88
2023/07/29 04:11:48;;;;;;;8.27;2.75;;;;;;;17.07;81.31;92660.66;2043254;70;20155;-88
2023/07/29 04:14:14;;;;;;;3.20;2.03;;;;;;;17.13;80.57;92657.28;2042501;70;20132;-88
2023/07/29 04:16:39;;;;;;;5.85;2.40;;;;;;;17.07;80.27;92652.13;2039789;70;20174;-89
2023/07/29 04:19:05;;;;;;;8.32;2.50;;;;;;;17.11;80.26;92651.53;2038706;70;20147;-88
2023/07/29 04:21:30;;;;;;;5.10;2.30;;;;;;;17.03;80.64;92651.97;2041905;70;20529;-88
2023/07/29 04:23:56;;;;;;;6.95;2.40;;;;;;;17.01;80.21;92666.13;2041717;70;20143;-90
2023/07/29 04:26:22;;;;;;;7.25;2.47;;;;;;;16.81;81.25;92673.91;2038420;70;20262;-89
2023/07/29 04:28:47;;;;;;;2.88;2.05;;;;;;;16.94;80.85;92685.06;2041497;70;20582;-91
2023/07/29 04:31:13;;;;;;;6.18;2.38;;;;;;;16.95;80.15;92695.09;2038453;70;20140;-89
2023/07/29 04:33:40;;;;;;;5.57;2.53;;;;;;;16.99;80.60;92685.94;2041916;70;20233;-90
2023/07/29 04:36:05;;;;;;;7.20;2.58;;;;;;;17.10;79.64;92689.91;2036030;70;20175;-88
2023/07/29 04:38:33;;;;;;;4.25;2.45;;;;;;;17.14;80.12;92687.94;2038306;70;20153;-90
2023/07/29 04:41:01;;;;;;;10.57;2.60;;;;;;;17.13;80.82;92680.78;2038301;70;20151;-90
2023/07/29 04:43:28;;;;;;;4.28;2.45;;;;;;;17.21;80.13;92668.97;2038638;70;20693;-89
2023/07/29 04:45:54;;;;;;;4.70;2.28;;;;;;;17.27;79.91;92669.94;2041839;70;20147;-90
2023/07/29 04:48:20;;;;;;;6.47;2.35;;;;;;;17.25;80.74;92675.53;2041445;70;20640;-91
2023/07/29 04:50:46;;;;;;;3.42;2.10;;;;;;;17.39;79.98;92663.19;2038283;70;20155;-88
2023/07/29 04:53:12;;;;;;;5.15;2.30;;;;;;;17.41;79.71;92675.41;2040961;70;20152;-91
2023/07/29 04:55:38;;;;;;;7.45;2.30;;;;;;;17.39;79.52;92668.88;2041703;70;20151;-88
2023/07/29 04:58:04;;;;;;;4.90;2.78;;;;;;;17.26;80.65;92667.72;2041453;70;20155;-92
2023/07/29 05:00:29;;;;;;;5.07;2.67;;;;;;;17.36;79.69;92665.22;2041854;70;20178;-91
2023/07/29 05:02:56;;;;;;;6.47;2.80;;;;;;;17.40;79.03;92667.50;2038496;70;20143;-92
2023/07/29 05:05:22;;;;;;;5.30;2.83;;;;;;;17.17;80.58;92668.81;2041989;70;20158;-89
2023/07/29 05:07:48;;;;;;;5.05;2.90;;;;;;;17.03;81.97;92658.38;2035901;70;20139;-88
2023/07/29 05:10:13;;;;;;;6.15;3.10;;;;;;;16.96;82.93;92664.53;2038632;70;20143;-89
2023/07/29 05:12:40;;;;;;;6.85;3.03;;;;;;;17.34;80.05;92650.22;2041782;70;20601;-90
2023/07/29 05:15:06;;;;;;;5.03;2.80;;;;;;;17.50;80.53;92653.63;2041908;70;20704;-91
2023/07/29 05:17:32;;;;;;;8.57;2.78;;;;;;;17.34;81.96;92664.44;2038746;70;20171;-90
2023/07/29 05:19:57;;;;;;;5.68;2.60;;;;;;;17.59;81.86;92666.72;2038424;70;20528;-89
2023/07/29 05:22:25;;;;;;;6.18;2.65;;;;;;;17.75;80.00;92667.31;2038592;70;20155;-92
2023/07/29 05:24:52;;;;;;;4.90;3.05;;;;;;;17.69;79.08;92669.94;2039019;70;20647;-91
2023/07/29 05:27:17;;;;;;;5.07;2.60;;;;;;;17.74;79.35;92657.34;2039783;70;20219;-90
2023/07/29 05:29:45;;;;;;;5.80;2.50;;;;;;;17.83;78.10;92666.16;2038981;70;20217;-87
2023/07/29 05:32:10;;;;;;;5.55;2.88;;;;;;;17.87;78.14;92664.16;2043891;70;20143;-92
2023/07/29 05:34:37;;;;;;;5.32;2.92;;;;;;;17.68;80.29;92673.44;2042093;70;20167;-92
2023/07/29 05:37:04;;;;;;;6.03;2.80;;;;;;;17.82;79.21;92671.09;2042709;70;20544;-93
2023/07/29 05:39:32;;;;;;;4.55;2.60;;;;;;;18.01;78.50;92666.75;2039172;70;20173;-86
2023/07/29 05:41:58;;;;;;;4.78;2.58;;;;;;;18.03;77.39;92661.84;2039562;70;20202;-90
2023/07/29 05:44:24;;;;;;;5.68;2.90;;;;;;;18.13;78.02;92666.41;2039278;70;20169;-91
2023/07/29 05:46:50;;;;;;;4.97;2.50;;;;;;;18.16;75.18;92671.50;2038977;70;20170;-93
2023/07/29 05:49:16;;;;;;;6.80;3.05;;;;;;;18.20;76.61;92680.19;2038866;70;20185;-89
2023/07/29 05:51:43;;;;;;;4.40;2.90;;;;;;;18.15;77.39;92683.59;2040012;70;20159;-91
2023/07/29 05:54:08;;;;;;;3.90;2.88;;;;;;;18.09;77.15;92683.38;2043135;70;20218;-89
2023/07/29 05:56:34;;;;;;;7.28;2.60;;;;;;;17.91;77.69;92683.50;2040115;70;20155;-94
2023/07/29 05:58:59;;;;;;;4.80;2.70;;;;;;;17.61;77.34;92688.88;2038829;70;20174;-94
2023/07/29 06:01:26;;;;;;;5.78;3.10;;;;;;;17.59;79.52;92692.34;2039054;70;20167;-90
2023/07/29 06:03:51;;;;;;;11.05;5.18;;;;;;;17.69;78.94;92683.47;2035848;70;20234;-85
2023/07/29 06:06:17;;;;;;;12.23;7.20;;;;;;;17.94;78.72;92682.19;2039735;70;20153;-93
2023/07/29 06:08:43;;;;;;;6.40;3.88;;;;;;;18.03;77.87;92681.06;2043272;70;20143;-91
2023/07/29 06:11:08;;;;;;;5.68;3.38;;;;;;;18.24;77.45;92694.56;2042947;70;20139;-92
2023/07/29 06:13:35;;;;;;;4.82;3.30;;;;;;;18.23;78.12;92698.06;2048714;70;20139;-86
2023/07/29 06:16:01;;;;;;;6.03;3.10;;;;;;;18.38;76.71;92707.81;2042873;70;20162;-92
2023/07/29 06:18:27;;;;;;;6.10;3.65;;;;;;;18.25;77.71;92715.97;2042617;70;20120;-88
2023/07/29 06:20:54;;;;;;;10.88;5.45;;;;;;;17.91;79.20;92709.13;2045989;70;20194;-93
2023/07/29 06:23:19;;;;;;;8.65;4.70;;;;;;;18.15;77.80;92712.06;2041797;70;20175;-94
2023/07/29 06:25:45;;;;;;;6.78;3.72;;;;;;;18.12;77.88;92707.69;2045692;70;20239;-88
2023/07/29 06:28:10;;;;;;;6.50;4.70;;;;;;;17.70;81.26;92708.41;2050129;70;20162;-90
2023/07/29 06:30:36;;;;;;;6.53;4.63;;;;;;;18.22;79.69;92703.03;2047352;70;20163;-88
2023/07/29 06:33:03;;;;;;;7.32;3.90;;;;;;;18.37;78.92;92692.84;2045706;70;20223;-88
2023/07/29 06:35:28;;;;;;;5.45;3.00;;;;;;;18.36;77.57;92704.91;2048110;70;20136;-92
2023/07/29 06:37:54;;;;;;;6.68;3.60;;;;;;;18.37;77.58;92707.09;2048739;70;20147;-94
2023/07/29 06:40:20;;;;;;;4.30;3.33;;;;;;;18.61;76.57;92689.31;2047238;70;20171;-96
2023/07/29 06:42:45;;;;;;;5.57;3.03;;;;;;;18.73;75.89;92689.69;2050286;70;20146;-93
2023/07/29 06:45:11;;;;;;;6.57;3.25;;;;;;;18.77;75.79;92686.97;2041463;70;20147;-85
2023/07/29 06:47:37;;;;;;;4.82;2.92;;;;;;;18.91;74.67;92693.09;2041710;70;20135;-83
2023/07/29 06:50:03;;;;;;;6.63;3.10;;;;;;;19.10;73.05;92691.50;2041767;70;20157;-83
2023/07/29 06:52:29;;;;;;;9.50;3.50;;;;;;;19.08;74.26;92690.72;2041627;70;20238;-84
2023/07/29 06:54:54;;;;;;;3.70;2.97;;;;;;;19.19;74.27;92696.03;2041655;70;20143;-84
2023/07/29 06:57:20;;;;;;;6.10;4.22;;;;;;;18.92;75.54;92688.09;2041773;70;20169;-83
2023/07/29 06:59:45;;;;;;;5.15;3.22;;;;;;;19.23;74.46;92684.00;2041456;70;20147;-85
2023/07/29 07:02:11;;;;;;;4.95;3.20;;;;;;;19.33;73.74;92686.44;2038281;70;20206;-85
2023/07/29 07:04:36;;;;;;;7.70;2.70;;;;;;;19.45;73.96;92695.34;2041555;70;20159;-84
2023/07/29 07:07:02;;;;;;;4.55;2.97;;;;;;;19.51;72.68;92692.66;2038342;70;20147;-84
2023/07/29 07:09:28;;;;;;;4.22;2.60;;;;;;;19.13;72.71;92686.59;2042397;70;20224;-85
2023/07/29 07:11:53;;;;;;;3.75;2.88;;;;;;;19.29;72.35;92687.78;2048048;70;20146;-85
2023/07/29 07:14:20;;;;;;;7.15;3.60;;;;;;;19.45;73.19;92676.09;2047797;70;20214;-80
2023/07/29 07:16:45;;;;;;;5.53;3.20;;;;;;;19.70;71.79;92677.50;2043129;70;20254;-83
2023/07/29 07:19:11;;;;;;;3.58;2.72;;;;;;;19.86;71.36;92668.63;2039250;70;20616;-83
2023/07/29 07:21:37;;;;;;;5.78;2.90;;;;;;;19.95;73.79;92661.72;2042436;70;20525;-81
2023/07/29 07:24:02;;;;;;;7.63;3.05;;;;;;;19.83;71.32;92672.09;2042269;70;20238;-81
2023/07/29 07:26:28;;;;;;;6.15;2.63;;;;;;;19.84;70.83;92671.44;2041907;70;20520;-84
2023/07/29 07:28:54;;;;;;;4.55;2.83;;;;;;;20.31;70.04;92661.16;2042329;70;20151;-85
2023/07/29 07:31:19;;;;;;;3.53;2.60;;;;;;;20.18;69.55;92657.28;2041278;70;20621;-82
2023/07/29 07:33:45;;;;;;;5.22;2.92;;;;;;;20.26;69.41;92662.47;2041611;70;20528;-84
2023/07/29 07:36:10;;;;;;;4.20;2.90;;;;;;;20.28;69.64;92666.09;2041413;70;20520;-83
2023/07/29 07:38:36;;;;;;;4.60;2.85;;;;;;;20.01;68.44;92667.56;2041691;70;20589;-85
2023/07/29 07:41:02;;;;;;;6.80;3.00;;;;;;;20.20;67.35;92671.63;2041516;70;20136;-84
2023/07/29 07:43:28;;;;;;;5.13;3.13;;;;;;;20.29;67.18;92666.81;2041393;70;20151;-82
2023/07/29 07:46:03;;;;;;;6.38;2.88;;;;;;;20.30;68.08;92674.75;2041528;70;20359;-82
2023/07/29 07:48:29;;;;;;;5.40;3.00;;;;;;;20.25;67.52;92663.88;2041475;70;20159;-81
2023/07/29 07:50:54;;;;;;;5.55;3.00;;;;;;;20.42;67.94;92660.00;2038264;70;20517;-81
2023/07/29 07:53:20;;;;;;;4.68;2.63;;;;;;;20.66;67.04;92653.41;2041538;70;20174;-82
2023/07/29 07:55:46;;;;;;;3.53;2.70;;;;;;;20.38;67.05;92653.44;2041514;70;20139;-80
2023/07/29 07:58:12;;;;;;;4.88;2.90;;;;;;;20.63;68.21;92646.22;2038168;70;20146;-83
2023/07/29 08:00:37;;;;;;;4.35;2.55;;;;;;;20.71;70.27;92641.41;2041005;70;20147;-81
2023/07/29 08:03:04;;;;;;;3.60;2.45;;;;;;;20.86;69.72;92642.44;2041196;70;20159;-82
2023/07/29 08:05:30;;;;;;;4.57;2.72;;;;;;;21.19;66.76;92649.56;2041282;70;20247;-83
2023/07/29 08:07:56;;;;;;;3.25;2.22;;;;;;;21.66;66.81;92652.66;2041279;70;20144;-81
2023/07/29 08:10:21;;;;;;;3.00;2.58;;;;;;;21.88;67.56;92658.78;2042072;70;20269;-81
2023/07/29 08:12:48;;;;;;;5.78;2.47;;;;;;;21.78;62.85;92652.88;2044418;70;20165;-83
2023/07/29 08:15:14;;;;;;;3.45;2.70;;;;;;;22.06;64.12;92655.53;2044770;70;20230;-84
2023/07/29 08:17:40;;;;;;;3.72;2.70;;;;;;;21.93;63.08;92662.44;2044504;70;20159;-83
2023/07/29 08:20:06;;;;;;;3.47;2.60;;;;;;;21.97;62.44;92653.94;2044474;70;20206;-83
2023/07/29 08:22:32;;;;;;;4.35;2.92;;;;;;;22.10;62.00;92657.75;2044673;70;20154;-83
2023/07/29 08:24:59;;;;;;;4.78;2.55;;;;;;;22.06;63.76;92658.38;2044542;70;20143;-82
2023/07/29 08:27:27;;;;;;;4.30;2.33;;;;;;;21.99;65.39;92645.34;2043685;70;20146;-85
2023/07/29 08:29:54;;;;;;;3.17;2.58;;;;;;;22.01;66.68;92649.00;2043352;70;20265;-82
2023/07/29 08:32:20;;;;;;;2.88;2.50;;;;;;;22.18;67.25;92638.56;2043261;70;20210;-84
2023/07/29 08:34:46;;;;;;;4.47;2.60;;;;;;;22.16;68.45;92615.59;2043197;70;20167;-83
2023/07/29 08:37:11;;;;;;;2.85;2.55;;;;;;;22.31;67.41;92622.25;2043538;70;20178;-82
2023/07/29 08:39:37;;;;;;;4.43;2.80;;;;;;;22.46;68.68;92612.47;2037665;70;20589;-82
2023/07/29 08:42:11;;;;;;;3.33;2.60;;;;;;;22.88;66.56;92605.91;2043922;70;20283;-83
2023/07/29 08:44:42;;;;;;;6.38;2.90;;;;;;;23.02;62.85;92603.25;2044192;70;20700;-82
2023/07/29 08:47:08;;;;;;;5.15;2.80;;;;;;;23.08;60.84;92606.19;2041567;70;20517;-86
2023/07/29 08:49:34;;;;;;;5.28;2.80;;;;;;;23.15;60.50;92607.00;2044895;70;20612;-86
2023/07/29 08:52:01;;;;;;;3.13;2.63;;;;;;;23.17;57.42;92612.03;2044717;70;20169;-85
2023/07/29 08:54:27;;;;;;;4.65;2.80;;;;;;;23.41;56.70;92605.84;2044421;70;20179;-85
2023/07/29 08:56:53;;;;;;;2.70;2.45;;;;;;;23.12;56.50;92605.50;2041130;70;20175;-86
2023/07/29 08:59:19;;;;;;;3.22;2.33;;;;;;;23.91;57.33;92604.97;2041206;70;20229;-87
2023/07/29 09:01:48;;;;;;;3.63;2.60;;;;;;;24.78;57.43;92590.56;2044580;70;20146;-87
2023/07/29 09:04:15;;;;;;;4.28;2.53;;;;;;;24.56;53.21;92588.28;2044440;70;20146;-87
2023/07/29 09:06:43;;;;;;;4.93;2.85;;;;;;;24.81;54.31;92586.28;2044661;70;20158;-87
2023/07/29 09:09:09;;;;;;;4.22;2.65;;;;;;;25.28;53.12;92567.09;2044452;70;20216;-87
2023/07/29 09:11:35;;;;;;;3.78;2.70;;;;;;;24.87;50.75;92571.19;2044568;70;20135;-87
2023/07/29 09:14:00;;;;;;;3.22;2.53;;;;;;;24.58;50.63;92574.63;2044636;70;20154;-87
2023/07/29 09:16:26;;;;;;;4.47;2.67;;;;;;;24.30;52.64;92577.28;2044652;70;20608;-87
2023/07/29 09:18:52;;;;;;;3.90;2.63;;;;;;;24.62;52.28;92576.81;2044526;70;20593;-86
2023/07/29 09:21:23;;;;;;;3.67;2.50;;;;;;;24.75;50.89;92569.00;2044703;70;20320;-87
2023/07/29 09:23:50;;;;;;;3.38;2.70;;;;;;;25.29;51.66;92570.69;2044795;70;20527;-85
2023/07/29 09:26:24;;;;;;;4.22;2.72;;;;;;;25.64;49.43;92579.47;2044487;70;20135;-85
2023/07/29 09:28:53;;;;;;;2.88;2.58;;;;;;;25.94;49.61;92575.97;2044266;70;20659;-85
2023/07/29 09:31:20;;;;;;;2.80;2.50;;;;;;;25.90;52.58;92573.78;2044528;70;20570;-86
2023/07/29 09:33:47;;;;;;;4.38;2.60;;;;;;;25.80;49.42;92573.78;2044534;70;20155;-86
2023/07/29 09:36:14;;;;;;;6.97;3.00;;;;;;;26.29;48.52;92586.06;2041353;70;20139;-86
2023/07/29 09:38:39;;;;;;;4.75;2.63;;;;;;;26.33;48.95;92562.25;2044199;70;20186;-86
2023/07/29 09:41:05;;;;;;;4.93;2.30;;;;;;;26.53;47.63;92576.00;2044164;70;20246;-89
2023/07/29 09:43:35;;;;;;;5.93;2.58;;;;;;;26.71;47.27;92575.97;2044090;70;20200;-87
2023/07/29 09:46:01;;;;;;;2.65;2.40;;;;;;;27.38;46.90;92566.41;2044694;70;20218;-88
2023/07/29 09:48:28;;;;;;;3.30;2.70;;;;;;;27.16;47.36;92561.44;2044844;70;20127;-86
2023/07/29 09:50:55;;;;;;;4.20;2.70;;;;;;;26.98;47.06;92561.47;2044981;70;20265;-89
2023/07/29 09:53:21;;;;;;;3.17;2.60;;;;;;;26.88;47.42;92547.78;2045076;70;20185;-85
2023/07/29 09:55:48;;;;;;;4.78;2.67;;;;;;;26.67;47.14;92555.06;2045206;70;20143;-87
2023/07/29 09:58:14;;;;;;;3.70;2.88;;;;;;;26.62;47.60;92551.47;2047607;70;20151;-89
2023/07/29 10:00:40;;;;;;;3.80;2.80;;;;;;;26.95;47.20;92552.09;2049523;70;20143;-87
2023/07/29 10:03:07;;;;;;;3.00;2.38;;;;;;;27.00;48.01;92549.94;2050602;70;20150;-88
2023/07/29 10:05:34;;;;;;;2.95;2.60;;;;;;;27.39;44.64;92553.41;2050503;70;20146;-87
2023/07/29 10:08:01;;;;;;;2.97;2.42;;;;;;;28.25;45.60;92547.13;2048619;70;20141;-89
2023/07/29 10:10:28;;;;;;;4.20;2.47;;;;;;;27.49;43.24;92549.75;2048142;70;20153;-88
2023/07/29 10:12:54;;;;;;;4.15;2.67;;;;;;;26.18;45.03;92547.13;2044301;70;20204;-85
2023/07/29 10:15:22;;;;;;;3.65;2.90;;;;;;;26.45;45.75;92544.97;2046499;70;20205;-90
2023/07/29 10:17:49;;;;;;;3.40;2.55;;;;;;;26.89;45.95;92551.38;2046058;70;20147;-85
2023/07/29 10:20:15;;;;;;;2.45;2.25;;;;;;;26.98;48.92;92536.19;2045759;70;20139;-89
2023/07/29 10:22:43;;;;;;;2.97;2.50;;;;;;;27.18;46.62;92529.66;2045243;70;20143;-91
2023/07/29 10:25:18;;;;;;;4.03;2.50;;;;;;;27.34;47.25;92538.25;2045634;70;20155;-90
2023/07/29 10:28:05;;;;;;;2.88;2.58;;;;;;;27.39;43.10;92524.50;2045454;70;20155;-90
2023/07/29 10:30:31;;;;;;;3.00;2.60;;;;;;;28.22;43.40;92531.94;2045551;70;20506;-89
2023/07/29 10:33:01;;;;;;;5.28;2.92;;;;;;;28.89;41.67;92527.75;2045894;70;20198;-93
2023/07/29 10:35:27;;;;;;;3.00;2.65;;;;;;;28.48;43.09;92525.25;2042369;70;20150;-91
2023/07/29 10:37:53;;;;;;;6.93;2.83;;;;;;;30.02;39.95;92524.91;2045043;70;20139;-89
2023/07/29 10:40:19;;;;;;;2.88;2.53;;;;;;;31.35;39.60;92519.75;2045032;70;20589;-90
2023/07/29 10:43:09;;;;;;;3.00;2.70;;;;;;;32.09;35.56;92513.81;2045461;70;20154;-90
2023/07/29 10:45:39;;;;;;;3.70;2.35;;;;;;;34.51;34.21;92510.91;2045307;70;20158;-90
2023/07/29 10:48:13;;;;;;;3.88;2.40;;;;;;;35.92;30.22;92508.91;2045401;70;20143;-86
2023/07/29 10:50:39;;;;;;;3.67;2.50;;;;;;;36.99;29.48;92512.03;2046814;70;20155;-92
2023/07/29 10:53:04;;;;;;;3.05;2.40;;;;;;;33.24;32.03;92508.06;2047999;70;20139;-89
2023/07/29 10:55:36;;;;;;;3.05;2.33;;;;;;;34.43;31.52;92514.75;2046158;70;20177;-90
2023/07/29 10:58:16;;;;;;;2.78;2.55;;;;;;;32.16;34.08;92505.63;2045581;70;20226;-87
2023/07/29 11:00:44;;;;;;;3.75;2.70;;;;;;;30.77;37.43;92511.38;2046078;70;20593;-92
2023/07/29 11:03:11;;;;;;;3.25;2.50;;;;;;;30.40;37.90;92496.75;2046122;70;20594;-91
2023/07/29 11:05:53;;;;;;;3.97;2.70;;;;;;;30.35;39.21;92498.28;2045280;70;20190;-86
2023/07/29 11:08:31;;;;;;;4.13;2.80;;;;;;;29.73;39.49;92506.47;2044954;70;20139;-85
2023/07/29 11:11:05;;;;;;;4.70;2.72;;;;;;;29.55;40.59;92513.97;2045502;70;20141;-91
2023/07/29 11:13:35;;;;;;;2.50;2.30;;;;;;;30.93;38.83;92490.03;2043649;70;20149;-90
2023/07/29 11:16:01;;;;;;;3.20;2.80;;;;;;;30.05;38.67;92484.94;2048615;70;20167;-91
2023/07/29 11:18:33;;;;;;;5.47;2.67;;;;;;;32.05;37.25;92481.16;2046355;70;20585;-89
2023/07/29 11:20:59;;;;;;;4.60;3.10;;;;;;;36.93;32.76;92495.41;2046617;70;20143;-90
2023/07/29 11:23:36;;;;;;;2.80;2.60;;;;;;;34.02;32.65;92483.22;2045693;70;20143;-92
2023/07/29 11:26:03;;;;;;;3.40;3.00;;;;;;;32.08;35.41;92474.53;2047849;70;20158;-89
2023/07/29 11:28:29;;;;;;;4.45;2.83;;;;;;;31.29;37.46;92465.34;2047288;70;20135;-89
2023/07/29 11:30:56;;;;;;;4.30;2.55;;;;;;;34.90;33.67;92466.44;2041962;70;20162;-89
2023/07/29 11:33:28;;;;;;;6.10;2.67;;;;;;;34.40;33.50;92469.56;2045285;70;20135;-89
2023/07/29 11:35:54;;;;;;;4.63;2.67;;;;;;;33.53;33.81;92464.94;2045826;70;20254;-91